Tunacan — TUNACAN — position and weather

sailwx.info

Track history (hours):
 
Tides and Currents Weather Stations Pressure Air Temp Water Temp Dewpoint Dewpoint Depression Visibility Wind Speed Wind Dir Waves Ship Positions

Tunacan

Last reported at 2017-Oct-03 02:07 UTC. Time now 2017-Oct-22 06:33 UTC.
Position N 38°19' W 123°03'.
Warning: this ship's position is 19 days out of date.

Length 13 m.

Type: Pleasure craft. MMSI: 338159978.

Date/timePositionNaut miles runAvg speedWind from/ knotsBaromVisibWave heightAir tempDewpointWater temp
2017-Oct-03 02:07N 38°19' W 123°03'0 0.0
2017-Oct-03 01:58N 38°19' W 123°03'  
2017-Sep-25 01:59N 38°20' W 123°03'612.5
2017-Sep-25 01:30N 38°14' W 123°00'713.0
2017-Sep-25 01:00N 38°08' W 122°58'1 1.5
2017-Sep-25 00:30N 38°07' W 122°59'1 1.3
2017-Sep-25 00:00N 38°08' W 122°59'1 1.3
2017-Sep-24 23:30N 38°07' W 122°58'1 2.0
2017-Sep-24 23:00N 38°06' W 122°59'1 1.9
2017-Sep-24 22:30N 38°05' W 122°59'1 1.3
2017-Sep-24 22:00N 38°06' W 122°59'0 0.4
2017-Sep-24 21:30N 38°06' W 122°59'1 1.0
2017-Sep-24 21:01N 38°05' W 122°59'0 0.8
2017-Sep-24 20:30N 38°06' W 122°59'0 0.3
2017-Sep-24 20:00N 38°06' W 122°59'1 1.1
2017-Sep-24 19:30N 38°06' W 122°59'0 0.7
2017-Sep-24 19:00N 38°06' W 122°59'0 0.7
2017-Sep-24 18:30N 38°06' W 122°59'1 1.7
2017-Sep-24 18:00N 38°07' W 122°58'1 1.5
2017-Sep-24 17:31N 38°06' W 122°59'1 1.8
2017-Sep-24 17:00N 38°07' W 122°59'0 0.9
2017-Sep-24 16:30N 38°07' W 122°59'0 0.6
2017-Sep-24 16:00N 38°06' W 122°59'0 0.1
2017-Sep-24 15:30N 38°06' W 122°59'1 2.4
2017-Sep-24 15:01N 38°08' W 122°58'1 2.5
2017-Sep-24 14:30N 38°09' W 122°58'1121.6
2017-Sep-24 14:01N 38°19' W 123°03'1 0.1
2017-Sep-24 02:51N 38°20' W 123°03'3 7.6
2017-Sep-24 02:30N 38°17' W 123°02'714.0
2017-Sep-24 02:00N 38°11' W 122°59'4 8.7
2017-Sep-24 01:30N 38°06' W 122°59'1 1.7
2017-Sep-24 01:00N 38°06' W 122°59'1 2.4
2017-Sep-24 00:30N 38°07' W 122°59'1 1.6
2017-Sep-24 00:00N 38°06' W 122°59'1 1.7
2017-Sep-23 23:30N 38°07' W 122°58'1 1.0
2017-Sep-23 23:00N 38°06' W 122°59'0 0.2
2017-Sep-23 22:30N 38°06' W 122°59'1 1.2
2017-Sep-23 21:59N 38°07' W 122°59'0 0.6
2017-Sep-23 21:29N 38°07' W 122°59'0 0.5
2017-Sep-23 21:00N 38°07' W 122°58'1 2.5
2017-Sep-23 20:30N 38°08' W 122°58'1 1.0
2017-Sep-23 19:59N 38°07' W 122°58'  
Track history (hours):
 
Tides and Currents Weather Stations Pressure Air Temp Water Temp Dewpoint Dewpoint Depression Visibility Wind Speed Wind Dir Waves Ship Positions

Tunacan

Last reported at 2017-Oct-03 02:07 UTC. Time now 2017-Oct-22 06:33 UTC.
Position N 38°19' W 123°03'.
Warning: this ship's position is 19 days out of date.

Length 13 m.

Type: Pleasure craft. MMSI: 338159978.

Date/timePositionNaut miles runAvg speedWind from/ knotsBaromVisibWave heightAir tempDewpointWater temp
2017-Oct-03 02:07N 38°19' W 123°03'0 0.0
2017-Oct-03 01:58N 38°19' W 123°03'  
2017-Sep-25 01:59N 38°20' W 123°03'612.5
2017-Sep-25 01:30N 38°14' W 123°00'713.0
2017-Sep-25 01:00N 38°08' W 122°58'1 1.5
2017-Sep-25 00:30N 38°07' W 122°59'1 1.3
2017-Sep-25 00:00N 38°08' W 122°59'1 1.3
2017-Sep-24 23:30N 38°07' W 122°58'1 2.0
2017-Sep-24 23:00N 38°06' W 122°59'1 1.9
2017-Sep-24 22:30N 38°05' W 122°59'1 1.3
2017-Sep-24 22:00N 38°06' W 122°59'0 0.4
2017-Sep-24 21:30N 38°06' W 122°59'1 1.0
2017-Sep-24 21:01N 38°05' W 122°59'0 0.8
2017-Sep-24 20:30N 38°06' W 122°59'0 0.3
2017-Sep-24 20:00N 38°06' W 122°59'1 1.1
2017-Sep-24 19:30N 38°06' W 122°59'0 0.7
2017-Sep-24 19:00N 38°06' W 122°59'0 0.7
2017-Sep-24 18:30N 38°06' W 122°59'1 1.7
2017-Sep-24 18:00N 38°07' W 122°58'1 1.5
2017-Sep-24 17:31N 38°06' W 122°59'1 1.8
2017-Sep-24 17:00N 38°07' W 122°59'0 0.9
2017-Sep-24 16:30N 38°07' W 122°59'0 0.6
2017-Sep-24 16:00N 38°06' W 122°59'0 0.1
2017-Sep-24 15:30N 38°06' W 122°59'1 2.4
2017-Sep-24 15:01N 38°08' W 122°58'1 2.5
2017-Sep-24 14:30N 38°09' W 122°58'1121.6
2017-Sep-24 14:01N 38°19' W 123°03'1 0.1
2017-Sep-24 02:51N 38°20' W 123°03'3 7.6
2017-Sep-24 02:30N 38°17' W 123°02'714.0
2017-Sep-24 02:00N 38°11' W 122°59'4 8.7
2017-Sep-24 01:30N 38°06' W 122°59'1 1.7
2017-Sep-24 01:00N 38°06' W 122°59'1 2.4
2017-Sep-24 00:30N 38°07' W 122°59'1 1.6
2017-Sep-24 00:00N 38°06' W 122°59'1 1.7
2017-Sep-23 23:30N 38°07' W 122°58'1 1.0
2017-Sep-23 23:00N 38°06' W 122°59'0 0.2
2017-Sep-23 22:30N 38°06' W 122°59'1 1.2
2017-Sep-23 21:59N 38°07' W 122°59'0 0.6
2017-Sep-23 21:29N 38°07' W 122°59'0 0.5
2017-Sep-23 21:00N 38°07' W 122°58'1 2.5
2017-Sep-23 20:30N 38°08' W 122°58'1 1.0
2017-Sep-23 19:59N 38°07' W 122°58'  

Dump ship's entire track history